Terminal Aerodrome Forecast
Issued by NWS Upton, NY

Home | Current Version | Previous Version | Text Only | Print | Product List | Glossary On
Versions: 1 2 3 4 5 6 7 8 9 10 11 12 13 14 15 16 17 18 19 20 21 22 23 24 25 26 27 28 29 30 31 32
110
FTUS41 KOKX 211341 AAA
TAFEWR
TAF AMD
KEWR 211341Z 2114/2218 22009KT P6SM SCT250
     FM211500 22012G20KT P6SM SCT250
     FM212200 21010KT P6SM BKN250
     FM220100 21008KT P6SM SCT250
     FM220400 VRB04KT P6SM BKN250
     FM220700 VRB04KT P6SM SCT020 BKN040
     FM220900 VRB04KT 5SM -RA BR OVC020
     FM221300 27007KT P6SM BKN050
     FM221500 31013G21KT P6SM BKN080=

USA.gov is the U.S. government's official web portal to all federal, state and local government web resources and services.